Terminal Aerodrome Forecast
Issued by NWS

Home | Current Version | Previous Version | Text Only | Print | Product List | Glossary On
Versions: 1 2 3 4 5 6 7 8 9 10 11 12 13 14 15 16 17
922
FTUS44 KJAN 292323
TAFHKS
TAF
KHKS 292323Z 3000/3024 15021G38KT P6SM VCTS BKN035CB BKN250
     FM300200 15019G33KT P6SM BKN025
     FM301000 15016G30KT P6SM VCTS BKN015CB
     FM301500 17016G30KT 3SM +TSRA BR BKN015CB OVC025
     FM301800 17014G27KT 3SM +TSRA BR BKN008CB OVC025
     FM302100 19012KT 5SM -RA BR OVC015=

USA.gov is the U.S. government's official web portal to all federal, state and local government web resources and services.